createdAt,value
2018-10-05T00:00:55.408Z,7.40
2018-10-05T00:03:23.964Z,7.60
2018-10-05T00:05:52.589Z,7.47
2018-10-05T00:08:21.041Z,7.63
2018-10-05T00:10:49.630Z,7.70
2018-10-05T00:13:18.170Z,7.07
2018-10-05T00:15:46.719Z,7.23
2018-10-05T00:18:15.184Z,6.93
2018-10-05T00:20:43.647Z,7.10
2018-10-05T00:23:12.139Z,6.53
2018-10-05T00:25:40.574Z,7.07
2018-10-05T00:28:09.051Z,7.07
2018-10-05T00:30:37.473Z,7.23
2018-10-05T00:33:05.979Z,7.17
2018-10-05T00:35:34.486Z,7.33
2018-10-05T00:38:03.003Z,7.40
2018-10-05T00:40:31.414Z,6.73
2018-10-05T00:42:59.897Z,7.70
2018-10-05T00:45:28.344Z,7.57
2018-10-05T00:47:56.826Z,8.37
2018-10-05T00:50:25.328Z,6.13
2018-10-05T00:52:53.837Z,7.50
2018-10-05T00:55:22.262Z,7.80
2018-10-05T00:57:50.742Z,7.60
2018-10-05T01:00:19.185Z,7.30
2018-10-05T01:02:47.660Z,7.63
2018-10-05T01:05:16.091Z,7.50
2018-10-05T01:07:44.571Z,7.57
2018-10-05T01:10:12.998Z,7.67
2018-10-05T01:12:41.455Z,7.73
2018-10-05T01:15:09.931Z,7.87
2018-10-05T01:17:38.402Z,8.23
2018-10-05T01:20:06.947Z,7.20
2018-10-05T01:22:35.406Z,8.10
2018-10-05T01:25:03.853Z,7.13
2018-10-05T01:27:32.385Z,7.67
2018-10-05T01:30:00.814Z,6.80
2018-10-05T01:32:29.312Z,7.30
2018-10-05T01:34:57.745Z,6.93
2018-10-05T01:37:26.230Z,6.83
2018-10-05T01:39:54.661Z,6.10
2018-10-05T01:42:23.150Z,6.57
2018-10-05T01:44:51.600Z,6.60
2018-10-05T01:47:20.090Z,6.60
2018-10-05T01:49:48.530Z,6.60
2018-10-05T01:52:16.970Z,6.90
2018-10-05T01:54:45.434Z,6.43
2018-10-05T01:57:13.897Z,6.60
2018-10-05T01:59:42.324Z,6.90
2018-10-05T02:02:10.839Z,6.50
2018-10-05T02:04:39.289Z,7.77
2018-10-05T02:07:07.765Z,6.90
2018-10-05T02:09:36.233Z,7.00
2018-10-05T02:12:04.854Z,6.20
2018-10-05T02:14:33.440Z,6.80
2018-10-05T02:17:01.910Z,6.40
2018-10-05T02:19:30.373Z,7.40
2018-10-05T02:21:58.876Z,6.67
2018-10-05T02:24:27.301Z,6.13
2018-10-05T02:26:55.793Z,7.00
2018-10-05T02:29:24.307Z,7.23
2018-10-05T02:31:52.774Z,7.83
2018-10-05T02:34:21.220Z,6.73
2018-10-05T02:36:49.738Z,7.73
2018-10-05T02:39:18.183Z,7.20
2018-10-05T02:41:46.683Z,7.53
2018-10-05T02:44:15.137Z,7.77
2018-10-05T02:46:43.728Z,7.43
2018-10-05T02:49:12.160Z,6.30
2018-10-05T02:51:40.614Z,7.30
2018-10-05T02:54:09.069Z,7.17
2018-10-05T02:56:37.517Z,6.90
2018-10-05T02:59:06.093Z,6.10
2018-10-05T03:01:45.684Z,7.30
2018-10-05T03:04:14.123Z,7.30
2018-10-05T03:06:42.649Z,7.10
2018-10-05T03:09:11.104Z,8.33
2018-10-05T03:11:39.560Z,7.90
2018-10-05T03:14:08.069Z,7.80
2018-10-05T03:16:36.520Z,7.87
2018-10-05T03:19:05.026Z,7.80
2018-10-05T03:21:33.502Z,9.07
2018-10-05T03:24:01.983Z,8.53
2018-10-05T03:26:30.478Z,7.67
2018-10-05T03:28:58.954Z,7.40
2018-10-05T03:31:27.453Z,8.77
2018-10-05T03:33:55.949Z,9.20
2018-10-05T03:36:24.402Z,8.97
2018-10-05T03:38:52.889Z,8.20
2018-10-05T03:41:21.318Z,8.33
2018-10-05T03:43:49.808Z,8.47
2018-10-05T03:46:18.330Z,8.47
2018-10-05T03:48:46.793Z,8.80
2018-10-05T03:51:15.238Z,8.80
2018-10-05T03:53:43.722Z,9.27
2018-10-05T03:56:12.168Z,8.80
2018-10-05T03:58:40.665Z,8.70
2018-10-05T04:01:09.141Z,8.53
2018-10-05T04:03:37.695Z,8.57
2018-10-05T04:06:06.172Z,8.27
2018-10-05T04:08:34.757Z,9.43
2018-10-05T04:11:03.208Z,8.30
2018-10-05T04:13:31.729Z,9.80
2018-10-05T04:16:00.183Z,9.97
2018-10-05T04:18:28.760Z,9.43
2018-10-05T04:20:57.206Z,10.03
2018-10-05T04:23:25.655Z,9.67
2018-10-05T04:25:54.134Z,10.97
2018-10-05T04:28:22.572Z,10.43
2018-10-05T04:30:51.070Z,10.63
2018-10-05T04:33:19.511Z,11.07
2018-10-05T04:35:48.011Z,11.53
2018-10-05T04:38:16.467Z,10.93
2018-10-05T04:40:44.960Z,10.30
2018-10-05T04:43:13.404Z,11.30
2018-10-05T04:45:41.904Z,10.27
2018-10-05T04:48:10.375Z,10.97
2018-10-05T04:50:38.842Z,10.60
2018-10-05T04:53:07.410Z,10.97
2018-10-05T04:55:35.898Z,11.20
2018-10-05T04:58:04.373Z,10.67
2018-10-05T05:00:32.941Z,11.17
2018-10-05T05:03:01.400Z,11.10
2018-10-05T05:05:30.610Z,10.63
2018-10-05T05:07:59.045Z,10.80
2018-10-05T05:10:27.562Z,10.00
2018-10-05T05:12:56.047Z,11.30
2018-10-05T05:15:24.645Z,11.47
2018-10-05T05:17:53.096Z,10.50
2018-10-05T05:20:21.594Z,11.33
2018-10-05T05:22:50.067Z,11.37
2018-10-05T05:25:18.563Z,11.67
2018-10-05T05:27:47.042Z,11.73
2018-10-05T05:30:15.628Z,10.67
2018-10-05T05:32:44.091Z,11.00
2018-10-05T05:35:12.581Z,10.60
2018-10-05T05:37:41.029Z,10.60
2018-10-05T05:40:09.609Z,11.63
2018-10-05T05:42:38.017Z,11.03
2018-10-05T05:45:06.514Z,11.10
2018-10-05T05:47:34.974Z,10.40
2018-10-05T05:50:03.459Z,11.97
2018-10-05T05:52:31.942Z,10.63
2018-10-05T05:55:00.429Z,10.90
2018-10-05T05:57:28.861Z,10.90
2018-10-05T05:59:57.387Z,11.03
2018-10-05T06:02:25.967Z,10.90
2018-10-05T06:04:54.764Z,10.50
2018-10-05T06:07:23.730Z,10.77
2018-10-05T06:09:52.247Z,10.67
2018-10-05T06:12:20.695Z,10.30
2018-10-05T06:14:49.202Z,10.03
2018-10-05T06:17:17.656Z,11.30
2018-10-05T06:19:46.156Z,10.70
2018-10-05T06:22:14.766Z,10.50
2018-10-05T06:24:43.127Z,10.43
2018-10-05T06:27:11.643Z,11.07
2018-10-05T06:29:40.124Z,10.80
2018-10-05T06:32:08.553Z,10.90
2018-10-05T06:34:37.028Z,9.63
2018-10-05T06:37:05.535Z,10.30
2018-10-05T06:39:33.990Z,10.33
2018-10-05T06:42:02.480Z,10.37
2018-10-05T06:44:30.930Z,9.77
2018-10-05T06:46:59.396Z,10.00
2018-10-05T06:49:27.879Z,10.47
2018-10-05T06:51:56.319Z,10.80
2018-10-05T06:54:24.791Z,10.23
2018-10-05T06:56:53.245Z,10.00
2018-10-05T06:59:21.725Z,9.83
2018-10-05T07:01:50.257Z,8.73
2018-10-05T07:04:18.690Z,9.37
2018-10-05T07:06:47.121Z,9.97
2018-10-05T07:09:15.600Z,8.67
2018-10-05T07:11:44.033Z,9.17
2018-10-05T07:14:12.543Z,9.10
2018-10-05T07:16:41.008Z,8.17
2018-10-05T07:19:09.482Z,8.37
2018-10-05T07:21:38.097Z,8.20
2018-10-05T07:24:06.567Z,9.07
2018-10-05T07:26:35.005Z,8.17
2018-10-05T07:29:03.498Z,8.07
2018-10-05T07:31:31.956Z,8.13
2018-10-05T07:34:00.443Z,8.17
2018-10-05T07:36:28.880Z,7.90
2018-10-05T07:38:57.333Z,6.90
2018-10-05T07:41:25.765Z,7.37
2018-10-05T07:43:54.281Z,7.17
2018-10-05T07:46:22.736Z,7.23
2018-10-05T07:48:51.221Z,7.00
2018-10-05T07:51:19.694Z,7.07
2018-10-05T07:53:48.186Z,7.97
2018-10-05T07:56:16.619Z,6.97
2018-10-05T07:58:45.099Z,7.03
2018-10-05T08:01:13.551Z,6.87
2018-10-05T08:03:42.032Z,6.27
2018-10-05T08:06:10.486Z,6.20
2018-10-05T08:08:38.980Z,6.97
2018-10-05T08:11:07.962Z,6.70
2018-10-05T08:13:36.547Z,6.87
2018-10-05T08:16:05.001Z,6.57
2018-10-05T08:18:33.528Z,6.53
2018-10-05T08:21:01.977Z,5.97
2018-10-05T08:23:30.512Z,5.97
2018-10-05T08:25:59.139Z,6.10
2018-10-05T08:28:27.623Z,6.43
2018-10-05T08:30:56.058Z,5.73
2018-10-05T08:33:24.552Z,5.57
2018-10-05T08:35:53.000Z,5.73
2018-10-05T08:38:21.478Z,5.30
2018-10-05T08:40:49.992Z,5.20
2018-10-05T08:43:18.457Z,5.03
2018-10-05T08:45:46.937Z,5.00
2018-10-05T08:48:15.445Z,5.20
2018-10-05T08:50:43.983Z,5.40
2018-10-05T08:53:12.435Z,4.70
2018-10-05T08:55:40.923Z,4.80
2018-10-05T08:58:09.491Z,4.57
2018-10-05T09:00:38.045Z,4.90
2018-10-05T09:03:06.491Z,5.33
2018-10-05T09:05:34.989Z,4.87
2018-10-05T09:08:03.427Z,5.53
2018-10-05T09:10:31.915Z,4.27
2018-10-05T09:13:00.354Z,4.30
2018-10-05T09:15:28.867Z,4.57
2018-10-05T09:17:57.308Z,4.53
2018-10-05T09:20:25.794Z,4.30
2018-10-05T09:22:54.238Z,4.17
2018-10-05T09:25:22.717Z,4.30
2018-10-05T09:27:51.275Z,4.30
2018-10-05T09:30:19.746Z,4.00
2018-10-05T09:32:48.288Z,3.63
2018-10-05T09:35:16.775Z,3.77
2018-10-05T09:37:45.221Z,3.47
2018-10-05T09:40:13.698Z,3.70
2018-10-05T09:42:42.147Z,3.50
2018-10-05T09:45:10.639Z,3.57
2018-10-05T09:47:39.110Z,3.43
2018-10-05T09:50:07.609Z,3.37
2018-10-05T09:52:36.086Z,3.70
2018-10-05T09:55:04.605Z,3.23
2018-10-05T09:57:33.049Z,3.40
2018-10-05T10:00:01.730Z,3.73
2018-10-05T10:02:35.259Z,3.40
2018-10-05T10:05:03.782Z,3.47
2018-10-05T10:07:32.211Z,2.80
2018-10-05T10:10:00.682Z,2.80
2018-10-05T10:12:29.117Z,2.90
2018-10-05T10:14:57.650Z,3.07
2018-10-05T10:17:26.091Z,3.23
2018-10-05T10:19:54.545Z,2.70
2018-10-05T10:22:23.397Z,2.53
2018-10-05T10:24:51.882Z,2.90
2018-10-05T10:27:20.375Z,2.83
2018-10-05T10:29:48.847Z,3.00
2018-10-05T10:32:17.298Z,2.77
2018-10-05T10:34:45.876Z,2.60
2018-10-05T10:37:14.297Z,2.03
2018-10-05T10:39:42.783Z,2.20
2018-10-05T10:42:11.243Z,2.80
2018-10-05T10:44:39.729Z,2.10
2018-10-05T10:47:08.183Z,1.80
2018-10-05T10:49:36.642Z,2.00
2018-10-05T10:52:05.077Z,2.00
2018-10-05T10:54:33.553Z,1.80
2018-10-05T10:57:02.013Z,2.00
2018-10-05T10:59:30.494Z,2.37
2018-10-05T11:01:58.938Z,1.93
2018-10-05T11:04:27.463Z,2.10
2018-10-05T11:06:55.916Z,2.00
2018-10-05T11:09:24.391Z,1.90
2018-10-05T11:11:52.838Z,1.60
2018-10-05T11:14:21.380Z,1.60
2018-10-05T11:16:49.866Z,2.40
2018-10-05T11:19:18.262Z,1.60
2018-10-05T11:21:46.796Z,1.83
2018-10-05T11:24:15.245Z,1.50
2018-10-05T11:26:43.733Z,1.87
2018-10-05T11:29:12.204Z,1.80
2018-10-05T11:31:40.692Z,1.47
2018-10-05T11:34:09.191Z,1.57
2018-10-05T11:36:37.674Z,1.50
2018-10-05T11:39:06.614Z,1.60
2018-10-05T11:41:35.098Z,1.67
2018-10-05T11:44:03.883Z,1.82
2018-10-05T11:46:32.394Z,1.50
2018-10-05T11:49:00.931Z,1.30
2018-10-05T11:51:29.417Z,1.67
2018-10-05T11:53:57.876Z,1.57
2018-10-05T11:56:26.324Z,1.85
2018-10-05T11:58:54.773Z,1.77
2018-10-05T12:01:23.676Z,1.62
2018-10-05T12:03:52.537Z,1.57
2018-10-05T12:06:21.048Z,1.50
2018-10-05T12:08:49.526Z,1.52
2018-10-05T12:11:18.023Z,1.42
2018-10-05T12:13:46.511Z,1.47
2018-10-05T12:16:14.990Z,1.70
2018-10-05T12:18:43.426Z,1.50
2018-10-05T12:21:11.997Z,1.47
2018-10-05T12:23:40.454Z,1.50
2018-10-05T12:26:09.113Z,1.30
2018-10-05T12:28:38.428Z,1.50
2018-10-05T12:31:06.972Z,1.32
2018-10-05T12:33:35.512Z,1.90
2018-10-05T12:36:03.983Z,1.67
2018-10-05T12:38:32.533Z,1.70
2018-10-05T12:41:01.012Z,1.80
2018-10-05T12:43:29.463Z,1.75
2018-10-05T12:45:57.954Z,1.65
2018-10-05T12:48:26.412Z,1.67
2018-10-05T12:50:54.892Z,1.75
2018-10-05T12:53:23.359Z,1.70
2018-10-05T12:55:51.872Z,1.70
2018-10-05T12:58:20.667Z,1.50
2018-10-05T13:00:49.203Z,1.67
2018-10-05T13:03:17.642Z,1.40
2018-10-05T13:05:46.105Z,1.50
2018-10-05T13:08:14.563Z,1.20
2018-10-05T13:10:43.142Z,2.12
2018-10-05T13:13:11.634Z,1.30
2018-10-05T13:15:40.087Z,1.40
2018-10-05T13:18:09.071Z,1.20
2018-10-05T13:20:37.503Z,1.10
2018-10-05T13:23:06.181Z,1.22
2018-10-05T13:25:34.615Z,1.30
2018-10-05T13:28:03.092Z,1.20
2018-10-05T13:30:31.549Z,1.30
2018-10-05T13:33:00.034Z,0.95
2018-10-05T13:35:28.532Z,1.22
2018-10-05T13:37:56.999Z,1.15
2018-10-05T13:40:25.482Z,1.07
2018-10-05T13:42:53.957Z,1.35
2018-10-05T13:45:22.400Z,1.35
2018-10-05T13:47:50.857Z,1.25
2018-10-05T13:50:19.315Z,1.30
2018-10-05T13:52:47.791Z,1.30
2018-10-05T13:55:16.232Z,0.98
2018-10-05T13:57:44.715Z,1.40
2018-10-05T14:00:13.281Z,1.35
2018-10-05T14:02:41.771Z,1.60
2018-10-05T14:05:10.268Z,1.40
2018-10-05T14:07:38.746Z,1.40
2018-10-05T14:10:07.225Z,1.40
2018-10-05T14:12:35.746Z,1.37
2018-10-05T14:15:04.314Z,1.20
2018-10-05T14:17:32.803Z,1.15
2018-10-05T14:20:01.240Z,1.20
2018-10-05T14:22:29.718Z,1.30
2018-10-05T14:24:58.154Z,1.50
2018-10-05T14:27:26.700Z,1.30
2018-10-05T14:29:55.143Z,1.45
2018-10-05T14:32:23.653Z,1.15
2018-10-05T14:34:52.098Z,1.30
2018-10-05T14:37:20.584Z,1.30
2018-10-05T14:39:49.015Z,1.20
2018-10-05T14:42:17.495Z,1.20
2018-10-05T14:44:45.943Z,1.42
2018-10-05T14:47:14.477Z,1.27
2018-10-05T14:49:42.945Z,1.60
2018-10-05T14:52:11.435Z,1.45
2018-10-05T14:54:39.901Z,1.40
2018-10-05T14:57:08.456Z,1.27
2018-10-05T14:59:36.866Z,1.37
2018-10-05T15:02:05.326Z,1.40
2018-10-05T15:04:33.771Z,1.30
2018-10-05T15:07:02.322Z,1.35
2018-10-05T15:09:30.720Z,1.20
2018-10-05T15:12:00.410Z,1.30
2018-10-05T15:14:28.890Z,1.20
2018-10-05T15:17:15.652Z,1.50
2018-10-05T15:19:44.091Z,1.32
2018-10-05T15:22:12.646Z,1.25
2018-10-05T15:24:41.035Z,0.90
2018-10-05T15:27:10.058Z,1.27
2018-10-05T15:29:38.507Z,1.63
2018-10-05T15:32:07.158Z,2.05
2018-10-05T15:34:35.611Z,1.50
2018-10-05T15:37:04.119Z,1.37
2018-10-05T15:39:32.581Z,1.20
2018-10-05T15:42:01.051Z,1.30
2018-10-05T15:44:29.495Z,1.20
2018-10-05T15:47:00.148Z,1.10
2018-10-05T15:49:29.550Z,1.30
2018-10-05T15:51:58.443Z,1.53
2018-10-05T15:54:27.078Z,1.17
2018-10-05T15:56:55.587Z,1.40
2018-10-05T15:59:24.453Z,1.10
2018-10-05T16:01:52.926Z,1.53
2018-10-05T16:04:21.458Z,1.27
2018-10-05T16:06:50.130Z,1.83
2018-10-05T16:09:19.008Z,1.70
2018-10-05T16:11:47.527Z,1.60
2018-10-05T16:14:16.059Z,1.80
2018-10-05T16:16:44.497Z,1.37
2018-10-05T16:19:12.990Z,1.77
2018-10-05T16:21:41.408Z,2.10
2018-10-05T16:24:11.498Z,2.90
2018-10-05T16:26:39.982Z,2.27
2018-10-05T16:29:08.410Z,2.10
2018-10-05T16:31:36.908Z,1.67
2018-10-05T16:34:05.338Z,1.83
2018-10-05T16:36:33.831Z,1.67
2018-10-05T16:39:02.355Z,1.33
2018-10-05T16:41:30.812Z,1.83
2018-10-05T16:43:59.431Z,1.73
2018-10-05T16:46:27.874Z,1.40
2018-10-05T16:48:56.316Z,2.50
2018-10-05T16:51:24.780Z,1.60
2018-10-05T16:53:53.222Z,1.93
2018-10-05T16:56:21.694Z,1.80
2018-10-05T16:58:50.121Z,1.87
2018-10-05T17:01:18.638Z,1.73
2018-10-05T17:03:47.161Z,1.90
2018-10-05T17:06:15.713Z,2.80
2018-10-05T17:08:47.882Z,3.10
2018-10-05T17:11:16.333Z,2.40
2018-10-05T17:13:44.859Z,2.07
2018-10-05T17:16:13.323Z,3.73
2018-10-05T17:18:41.746Z,4.13
2018-10-05T17:21:10.243Z,2.30
2018-10-05T17:23:38.753Z,1.70
2018-10-05T17:26:07.255Z,1.40
2018-10-05T17:28:35.696Z,1.40
2018-10-05T17:31:04.280Z,1.77
2018-10-05T17:33:32.730Z,1.73
2018-10-05T17:36:01.206Z,1.50
2018-10-05T17:38:29.659Z,1.50
2018-10-05T17:40:58.168Z,1.77
2018-10-05T17:43:26.614Z,1.60
2018-10-05T17:45:55.069Z,2.00
2018-10-05T17:48:23.562Z,1.53
2018-10-05T17:50:52.026Z,2.30
2018-10-05T17:53:20.466Z,2.67
2018-10-05T17:55:49.114Z,2.43
2018-10-05T17:58:17.481Z,2.60
2018-10-05T18:00:46.035Z,2.73
2018-10-05T18:03:15.260Z,3.53
2018-10-05T18:05:43.806Z,2.90
2018-10-05T18:08:12.310Z,2.23
2018-10-05T18:10:40.799Z,2.20
2018-10-05T18:13:09.389Z,2.20
2018-10-05T18:15:38.402Z,2.60
2018-10-05T18:18:06.923Z,2.27
2018-10-05T18:20:35.414Z,2.70
2018-10-05T18:23:03.935Z,3.20
2018-10-05T18:25:32.381Z,2.10
2018-10-05T18:28:01.059Z,2.30
2018-10-05T18:30:29.566Z,2.60
2018-10-05T18:32:58.250Z,2.23
2018-10-05T18:35:26.686Z,2.07
2018-10-05T18:37:55.158Z,2.27
2018-10-05T18:40:23.605Z,2.20
2018-10-05T18:42:52.058Z,2.20
2018-10-05T18:45:20.500Z,2.20
2018-10-05T18:47:48.992Z,2.60
2018-10-05T18:50:17.454Z,2.43
2018-10-05T18:52:45.950Z,2.23
2018-10-05T18:55:14.407Z,2.40
2018-10-05T18:57:42.877Z,2.40
2018-10-05T19:00:11.349Z,1.90
2018-10-05T19:02:39.814Z,2.30
2018-10-05T19:05:08.301Z,2.47
2018-10-05T19:07:36.812Z,2.23
2018-10-05T19:10:05.396Z,2.50
2018-10-05T19:12:33.885Z,2.20
2018-10-05T19:15:02.367Z,2.50
2018-10-05T19:17:30.843Z,2.13
2018-10-05T19:19:59.279Z,2.33
2018-10-05T19:22:27.741Z,2.90
2018-10-05T19:24:56.204Z,2.70
2018-10-05T19:27:24.675Z,2.50
2018-10-05T19:29:53.141Z,2.70
2018-10-05T19:32:21.604Z,2.80
2018-10-05T19:34:50.059Z,2.80
2018-10-05T19:37:18.665Z,2.50
2018-10-05T19:39:47.093Z,2.50
2018-10-05T19:42:15.545Z,2.63
2018-10-05T19:44:44.174Z,2.87
2018-10-05T19:47:12.655Z,2.70
2018-10-05T19:49:41.115Z,2.80
2018-10-05T19:52:10.245Z,3.00
2018-10-05T19:54:38.678Z,3.27
2018-10-05T19:57:07.161Z,3.07
2018-10-05T19:59:35.669Z,3.20
2018-10-05T20:02:04.196Z,2.87
2018-10-05T20:04:32.590Z,3.47
2018-10-05T20:07:01.082Z,3.20
2018-10-05T20:09:29.526Z,3.30
2018-10-05T20:11:58.019Z,3.00
2018-10-05T20:14:26.567Z,3.30
2018-10-05T20:16:55.070Z,3.20
2018-10-05T20:19:23.560Z,3.27
2018-10-05T20:21:52.015Z,3.23
2018-10-05T20:24:20.624Z,3.30
2018-10-05T20:26:49.197Z,3.17
2018-10-05T20:29:17.687Z,3.70
2018-10-05T20:31:46.130Z,3.30
2018-10-05T20:34:14.599Z,3.67
2018-10-05T20:36:43.263Z,3.30
2018-10-05T20:39:11.560Z,3.80
2018-10-05T20:41:39.995Z,3.43
2018-10-05T20:44:08.531Z,4.10
2018-10-05T20:46:36.988Z,4.57
2018-10-05T20:49:05.490Z,3.50
2018-10-05T20:51:33.939Z,4.00
2018-10-05T20:54:02.463Z,3.90
2018-10-05T20:56:30.905Z,3.57
2018-10-05T20:58:59.423Z,3.77
2018-10-05T21:01:27.915Z,3.87
2018-10-05T21:03:56.400Z,3.60
2018-10-05T21:06:24.868Z,4.00
2018-10-05T21:08:53.350Z,3.63
2018-10-05T21:11:21.787Z,3.40
2018-10-05T21:13:50.487Z,4.00
2018-10-05T21:16:18.914Z,3.83
2018-10-05T21:18:47.377Z,3.80
2018-10-05T21:21:15.844Z,4.30
2018-10-05T21:23:44.415Z,4.20
2018-10-05T21:26:12.845Z,4.40
2018-10-05T21:28:41.305Z,3.83
2018-10-05T21:31:09.743Z,4.47
2018-10-05T21:33:38.324Z,4.20
2018-10-05T21:36:06.776Z,3.93
2018-10-05T21:38:35.324Z,4.40
2018-10-05T21:41:03.714Z,4.53
2018-10-05T21:43:32.190Z,4.73
2018-10-05T21:46:00.608Z,4.47
2018-10-05T21:48:29.174Z,4.60
2018-10-05T21:50:57.609Z,4.43
2018-10-05T21:53:26.076Z,4.53
2018-10-05T21:55:54.647Z,5.03
2018-10-05T21:58:23.139Z,4.10
2018-10-05T22:00:51.599Z,4.30
2018-10-05T22:03:20.067Z,4.63
2018-10-05T22:05:48.515Z,4.40
2018-10-05T22:08:16.971Z,4.03
2018-10-05T22:10:45.416Z,4.10
2018-10-05T22:13:13.931Z,5.13
2018-10-05T22:15:42.383Z,4.50
2018-10-05T22:18:10.853Z,4.40
2018-10-05T22:20:39.273Z,4.70
2018-10-05T22:23:07.730Z,4.20
2018-10-05T22:25:36.189Z,4.53
2018-10-05T22:28:04.656Z,4.90
2018-10-05T22:30:33.085Z,4.47
2018-10-05T22:33:01.552Z,4.70
2018-10-05T22:35:30.001Z,5.37
2018-10-05T22:37:58.506Z,4.50
2018-10-05T22:40:26.955Z,4.60
2018-10-05T22:42:55.432Z,4.70
2018-10-05T22:45:23.865Z,5.27
2018-10-05T22:47:52.366Z,4.67
2018-10-05T22:50:20.811Z,4.97
2018-10-05T22:52:49.328Z,4.90
2018-10-05T22:55:17.751Z,4.80
2018-10-05T22:57:46.226Z,4.73
2018-10-05T23:00:14.657Z,4.53
2018-10-05T23:02:43.128Z,4.37
2018-10-05T23:05:11.566Z,5.10
2018-10-05T23:07:40.073Z,5.07
2018-10-05T23:10:08.553Z,5.23
2018-10-05T23:12:37.063Z,4.67
2018-10-05T23:15:06.215Z,5.23
2018-10-05T23:17:34.677Z,5.00
2018-10-05T23:20:03.144Z,5.23
2018-10-05T23:22:31.602Z,5.30
2018-10-05T23:25:00.173Z,5.27
2018-10-05T23:27:28.738Z,5.37
2018-10-05T23:29:57.183Z,5.43
2018-10-05T23:32:25.667Z,5.17
2018-10-05T23:34:54.092Z,5.50
2018-10-05T23:37:22.550Z,4.93
2018-10-05T23:39:50.988Z,5.20
2018-10-05T23:42:19.473Z,5.10
2018-10-05T23:44:47.905Z,5.50
2018-10-05T23:47:16.371Z,5.50
2018-10-05T23:49:44.789Z,5.60
2018-10-05T23:52:41.285Z,5.37
2018-10-05T23:55:09.726Z,5.57
2018-10-05T23:57:38.944Z,5.33
